createdAt,value
2023-05-17T00:00:57.397Z,1.57
2023-05-17T00:03:27.187Z,1.60
2023-05-17T00:05:55.562Z,1.60
2023-05-17T00:08:23.961Z,1.73
2023-05-17T00:10:52.624Z,1.83
2023-05-17T00:13:21.091Z,1.50
2023-05-17T00:15:49.466Z,1.33
2023-05-17T00:18:18.020Z,1.30
2023-05-17T00:20:47.896Z,1.30
2023-05-17T00:23:16.358Z,1.20
2023-05-17T00:25:44.964Z,1.37
2023-05-17T00:28:13.397Z,1.53
2023-05-17T00:30:41.843Z,1.23
2023-05-17T00:33:10.286Z,1.60
2023-05-17T00:35:38.710Z,1.10
2023-05-17T00:38:08.536Z,1.70
2023-05-17T00:40:38.630Z,1.40
2023-05-17T00:43:07.002Z,1.30
2023-05-17T00:45:35.570Z,1.53
2023-05-17T00:48:04.219Z,1.53
2023-05-17T00:50:32.883Z,1.53
2023-05-17T00:53:01.550Z,1.60
2023-05-17T00:55:31.855Z,1.10
2023-05-17T00:58:01.043Z,1.10
2023-05-17T01:00:30.820Z,1.30
2023-05-17T01:02:59.245Z,1.00
2023-05-17T01:05:28.866Z,1.10
2023-05-17T01:07:57.657Z,1.30
2023-05-17T01:10:37.851Z,1.37
2023-05-17T01:13:12.235Z,1.47
2023-05-17T01:15:45.696Z,1.57
2023-05-17T01:18:25.496Z,1.03
2023-05-17T01:20:56.275Z,1.80
2023-05-17T01:23:39.119Z,1.20
2023-05-17T01:26:17.252Z,1.30
2023-05-17T01:28:52.834Z,1.17
2023-05-17T01:31:22.123Z,0.93
2023-05-17T01:33:50.570Z,0.90
2023-05-17T01:36:19.000Z,1.23
2023-05-17T01:38:47.356Z,1.03
2023-05-17T01:41:24.451Z,1.00
2023-05-17T01:44:10.182Z,1.43
2023-05-17T01:46:42.530Z,1.10
2023-05-17T01:49:17.635Z,1.10
2023-05-17T01:51:50.856Z,1.63
2023-05-17T01:54:24.707Z,1.03
2023-05-17T01:56:59.544Z,1.23
2023-05-17T01:59:31.410Z,1.33
2023-05-17T02:02:06.241Z,1.40
2023-05-17T02:04:34.916Z,1.10
2023-05-17T02:07:03.665Z,1.27
2023-05-17T02:09:32.744Z,1.50
2023-05-17T02:12:01.468Z,1.10
2023-05-17T02:14:31.261Z,1.10
2023-05-17T02:16:59.929Z,1.30
2023-05-17T02:19:28.396Z,1.20
2023-05-17T02:21:56.759Z,1.00
2023-05-17T02:24:25.370Z,1.43
2023-05-17T02:26:53.735Z,1.23
2023-05-17T02:29:22.200Z,1.47
2023-05-17T02:31:51.963Z,1.30
2023-05-17T02:34:20.349Z,1.30
2023-05-17T02:36:52.468Z,1.10
2023-05-17T02:39:20.942Z,1.03
2023-05-17T02:41:49.382Z,1.30
2023-05-17T02:44:18.415Z,1.23
2023-05-17T02:46:46.870Z,1.13
2023-05-17T02:49:16.594Z,1.17
2023-05-17T02:51:44.996Z,1.30
2023-05-17T02:54:13.447Z,1.10
2023-05-17T02:56:41.821Z,1.20
2023-05-17T02:59:10.575Z,1.00
2023-05-17T03:01:40.654Z,1.10
2023-05-17T03:04:09.481Z,1.00
2023-05-17T03:06:40.596Z,1.40
2023-05-17T03:09:09.164Z,1.33
2023-05-17T03:11:38.171Z,1.40
2023-05-17T03:14:11.073Z,0.83
2023-05-17T03:16:39.424Z,0.90
2023-05-17T03:19:08.260Z,1.10
2023-05-17T03:21:36.808Z,1.20
2023-05-17T03:24:08.133Z,1.20
2023-05-17T03:26:38.165Z,1.03
2023-05-17T03:29:08.015Z,1.00
2023-05-17T03:31:36.571Z,1.37
2023-05-17T03:34:05.300Z,1.20
2023-05-17T03:36:36.698Z,1.33
2023-05-17T03:39:06.574Z,1.20
2023-05-17T03:41:35.709Z,1.80
2023-05-17T03:44:04.172Z,1.63
2023-05-17T03:46:34.227Z,1.90
2023-05-17T03:49:02.893Z,1.83
2023-05-17T03:51:32.832Z,1.53
2023-05-17T03:54:02.941Z,1.80
2023-05-17T03:56:33.775Z,1.77
2023-05-17T03:59:02.248Z,1.80
2023-05-17T04:01:30.725Z,1.63
2023-05-17T04:04:01.398Z,1.37
2023-05-17T04:06:30.164Z,1.67
2023-05-17T04:08:59.736Z,1.50
2023-05-17T04:11:28.320Z,1.57
2023-05-17T04:13:59.197Z,1.80
2023-05-17T04:16:27.612Z,1.73
2023-05-17T04:18:57.001Z,1.53
2023-05-17T04:21:25.502Z,1.57
2023-05-17T04:23:54.336Z,1.83
2023-05-17T04:26:22.802Z,1.60
2023-05-17T04:28:51.411Z,1.50
2023-05-17T04:31:21.175Z,1.40
2023-05-17T04:33:49.868Z,1.70
2023-05-17T04:36:18.683Z,1.43
2023-05-17T04:38:47.559Z,1.57
2023-05-17T04:41:19.793Z,1.50
2023-05-17T04:43:49.412Z,1.43
2023-05-17T04:46:25.699Z,1.37
2023-05-17T04:48:56.340Z,1.50
2023-05-17T04:51:27.039Z,1.40
2023-05-17T04:53:56.169Z,1.43
2023-05-17T04:56:24.547Z,1.73
2023-05-17T04:58:53.429Z,1.57
2023-05-17T05:01:22.577Z,1.60
2023-05-17T05:03:53.409Z,1.73
2023-05-17T05:06:22.383Z,1.73
2023-05-17T05:08:51.143Z,1.80
2023-05-17T05:11:19.567Z,1.73
2023-05-17T05:13:48.018Z,2.50
2023-05-17T05:16:16.610Z,2.20
2023-05-17T05:18:46.429Z,2.30
2023-05-17T05:21:16.408Z,2.80
2023-05-17T05:23:44.834Z,2.40
2023-05-17T05:26:14.417Z,2.20
2023-05-17T05:28:43.610Z,2.40
2023-05-17T05:31:13.044Z,2.30
2023-05-17T05:33:47.614Z,2.10
2023-05-17T05:36:17.630Z,1.77
2023-05-17T05:38:46.012Z,2.07
2023-05-17T05:41:14.608Z,1.90
2023-05-17T05:43:43.015Z,1.70
2023-05-17T05:46:11.409Z,1.60
2023-05-17T05:48:42.038Z,2.00
2023-05-17T05:51:10.953Z,1.83
2023-05-17T05:53:43.774Z,1.90
2023-05-17T05:56:12.304Z,1.93
2023-05-17T05:58:40.764Z,1.40
2023-05-17T06:01:10.606Z,1.60
2023-05-17T06:03:38.973Z,2.13
2023-05-17T06:06:07.889Z,2.13
2023-05-17T06:08:36.319Z,1.73
2023-05-17T06:11:06.275Z,2.00
2023-05-17T06:13:34.816Z,2.23
2023-05-17T06:16:03.302Z,2.17
2023-05-17T06:18:31.699Z,1.90
2023-05-17T06:21:00.261Z,2.30
2023-05-17T06:23:28.660Z,2.40
2023-05-17T06:25:57.061Z,2.17
2023-05-17T06:28:26.856Z,2.50
2023-05-17T06:30:55.206Z,2.10
2023-05-17T06:33:23.739Z,1.80
2023-05-17T06:35:56.612Z,2.37
2023-05-17T06:38:26.730Z,1.97
2023-05-17T06:40:55.366Z,2.20
2023-05-17T06:43:24.223Z,2.07
2023-05-17T06:45:54.061Z,2.07
2023-05-17T06:48:22.556Z,1.83
2023-05-17T06:50:51.224Z,1.90
2023-05-17T06:53:19.717Z,2.43
2023-05-17T06:55:48.111Z,2.27
2023-05-17T06:58:16.453Z,2.10
2023-05-17T07:00:44.864Z,2.27
2023-05-17T07:03:14.728Z,2.53
2023-05-17T07:05:43.173Z,2.10
2023-05-17T07:08:11.539Z,2.60
2023-05-17T07:10:39.912Z,2.20
2023-05-17T07:13:08.268Z,2.03
2023-05-17T07:15:36.680Z,2.00
2023-05-17T07:18:05.533Z,2.60
2023-05-17T07:20:35.344Z,1.80
2023-05-17T07:23:03.769Z,2.20
2023-05-17T07:25:33.037Z,2.13
2023-05-17T07:28:01.398Z,2.00
2023-05-17T07:30:29.947Z,2.37
2023-05-17T07:32:58.453Z,2.23
2023-05-17T07:35:27.120Z,1.73
2023-05-17T07:37:56.974Z,1.80
2023-05-17T07:40:25.412Z,2.07
2023-05-17T07:42:54.055Z,2.27
2023-05-17T07:45:22.687Z,2.03
2023-05-17T07:47:51.275Z,2.13
2023-05-17T07:50:19.683Z,2.00
2023-05-17T07:52:48.352Z,2.27
2023-05-17T07:55:18.336Z,2.30
2023-05-17T07:57:47.479Z,2.17
2023-05-17T08:00:19.309Z,1.97
2023-05-17T08:02:47.805Z,2.70
2023-05-17T08:05:16.240Z,2.03
2023-05-17T08:07:44.682Z,2.10
2023-05-17T08:10:13.122Z,2.27
2023-05-17T08:12:42.908Z,2.20
2023-05-17T08:15:12.038Z,2.00
2023-05-17T08:17:40.391Z,2.10
2023-05-17T08:20:10.958Z,2.23
2023-05-17T08:22:39.409Z,2.10
2023-05-17T08:25:08.606Z,2.13
2023-05-17T08:27:36.955Z,2.20
2023-05-17T08:30:11.905Z,2.10
2023-05-17T08:32:44.980Z,2.10
2023-05-17T08:35:13.856Z,1.70
2023-05-17T08:37:43.028Z,2.10
2023-05-17T08:40:12.239Z,2.00
2023-05-17T08:42:40.949Z,2.10
2023-05-17T08:45:12.204Z,2.40
2023-05-17T08:47:43.447Z,2.07
2023-05-17T08:50:12.943Z,2.20
2023-05-17T08:52:42.566Z,2.17
2023-05-17T08:55:11.396Z,2.33
2023-05-17T08:57:40.742Z,2.30
2023-05-17T09:00:14.661Z,2.47
2023-05-17T09:02:43.980Z,2.13
2023-05-17T09:05:14.289Z,2.30
2023-05-17T09:07:42.971Z,2.07
2023-05-17T09:10:13.622Z,1.90
2023-05-17T09:12:42.420Z,2.40
2023-05-17T09:15:16.944Z,2.27
2023-05-17T09:17:52.295Z,1.80
2023-05-17T09:20:25.331Z,2.00
2023-05-17T09:22:53.724Z,2.20
2023-05-17T09:25:24.486Z,2.23
2023-05-17T09:27:54.485Z,1.63
2023-05-17T09:30:30.432Z,1.83
2023-05-17T09:32:59.158Z,2.23
2023-05-17T09:35:31.633Z,1.70
2023-05-17T09:38:08.610Z,2.00
2023-05-17T09:40:41.096Z,1.87
2023-05-17T09:43:10.633Z,1.97
2023-05-17T09:45:41.312Z,1.60
2023-05-17T09:48:14.747Z,1.60
2023-05-17T09:50:49.780Z,1.90
2023-05-17T09:53:29.679Z,1.60
2023-05-17T09:56:00.143Z,1.77
2023-05-17T09:58:29.956Z,1.87
2023-05-17T10:01:03.766Z,1.73
2023-05-17T10:03:34.411Z,1.80
2023-05-17T10:06:05.458Z,1.70
2023-05-17T10:08:35.132Z,1.77
2023-05-17T10:11:10.222Z,1.60
2023-05-17T10:13:45.399Z,1.97
2023-05-17T10:16:15.948Z,1.97
2023-05-17T10:18:45.172Z,1.80
2023-05-17T10:21:13.844Z,1.80
2023-05-17T10:23:44.408Z,1.70
2023-05-17T10:26:16.108Z,1.83
2023-05-17T10:28:46.439Z,2.40
2023-05-17T10:31:16.913Z,1.90
2023-05-17T10:33:48.647Z,1.87
2023-05-17T10:36:19.776Z,2.00
2023-05-17T10:38:48.880Z,2.10
2023-05-17T10:41:19.177Z,2.00
2023-05-17T10:43:48.519Z,2.10
2023-05-17T10:46:21.449Z,1.73
2023-05-17T10:48:52.178Z,2.10
2023-05-17T10:51:25.698Z,2.23
2023-05-17T10:54:10.306Z,1.93
2023-05-17T10:56:42.924Z,1.83
2023-05-17T10:59:21.533Z,2.27
2023-05-17T11:01:59.842Z,2.13
2023-05-17T11:04:34.764Z,2.00
2023-05-17T11:07:27.054Z,2.10
2023-05-17T11:09:57.439Z,2.20
2023-05-17T11:12:38.502Z,2.23
2023-05-17T11:15:11.112Z,2.00
2023-05-17T11:17:53.969Z,1.80
2023-05-17T11:20:35.102Z,2.00
2023-05-17T11:23:06.403Z,2.33
2023-05-17T11:25:37.059Z,2.30
2023-05-17T11:28:10.500Z,2.33
2023-05-17T11:30:51.172Z,2.40
2023-05-17T11:33:33.264Z,2.13
2023-05-17T11:36:08.044Z,2.00
2023-05-17T11:38:38.348Z,2.80
2023-05-17T11:43:52.327Z,2.40
2023-05-17T11:46:22.569Z,1.80
2023-05-17T11:48:54.712Z,1.80
2023-05-17T11:51:25.081Z,2.23
2023-05-17T11:53:56.125Z,1.97
2023-05-17T11:56:39.404Z,1.90
2023-05-17T11:59:11.663Z,2.17
2023-05-17T12:01:47.687Z,2.13
2023-05-17T12:04:26.121Z,1.90
2023-05-17T12:06:55.515Z,2.43
2023-05-17T12:09:26.247Z,1.97
2023-05-17T12:11:55.639Z,2.43
2023-05-17T12:14:24.063Z,1.80
2023-05-17T12:16:56.294Z,2.70
2023-05-17T12:19:29.824Z,2.10
2023-05-17T12:22:09.419Z,1.87
2023-05-17T12:24:39.646Z,2.20
2023-05-17T12:27:08.292Z,1.70
2023-05-17T12:29:37.037Z,2.17
2023-05-17T12:32:07.265Z,1.83
2023-05-17T12:34:37.228Z,2.37
2023-05-17T12:37:10.320Z,2.03
2023-05-17T12:39:39.048Z,2.17
2023-05-17T12:42:08.509Z,2.37
2023-05-17T12:44:37.359Z,1.90
2023-05-17T12:47:05.811Z,2.37
2023-05-17T12:49:41.129Z,2.40
2023-05-17T12:52:11.570Z,2.03
2023-05-17T12:54:41.740Z,1.80
2023-05-17T12:57:15.735Z,2.13
2023-05-17T12:59:53.117Z,2.00
2023-05-17T13:02:22.393Z,1.70
2023-05-17T13:04:52.433Z,2.17
2023-05-17T13:07:24.950Z,2.20
2023-05-17T13:09:53.606Z,2.42
2023-05-17T13:12:24.241Z,1.75
2023-05-17T13:14:54.832Z,1.90
2023-05-17T13:17:27.973Z,1.83
2023-05-17T13:19:58.427Z,2.50
2023-05-17T13:22:27.392Z,1.77
2023-05-17T13:24:56.105Z,1.83
2023-05-17T13:27:24.504Z,2.35
2023-05-17T13:29:53.080Z,2.17
2023-05-17T13:32:22.972Z,1.95
2023-05-17T13:34:51.519Z,2.20
2023-05-17T13:37:21.565Z,1.70
2023-05-17T13:39:49.920Z,1.90
2023-05-17T13:42:18.749Z,2.03
2023-05-17T13:44:47.178Z,2.60
2023-05-17T13:47:15.633Z,1.50
2023-05-17T13:49:44.021Z,1.80
2023-05-17T13:52:13.390Z,2.00
2023-05-17T13:54:43.126Z,1.77
2023-05-17T13:57:13.075Z,1.70
2023-05-17T13:59:42.320Z,2.50
2023-05-17T14:02:11.558Z,2.20
2023-05-17T14:04:40.646Z,2.10
2023-05-17T14:07:09.066Z,2.20
2023-05-17T14:09:37.417Z,2.15
2023-05-17T14:12:08.072Z,2.30
2023-05-17T14:14:36.567Z,2.10
2023-05-17T14:17:05.502Z,2.00
2023-05-17T14:19:33.940Z,1.90
2023-05-17T14:22:02.448Z,2.20
2023-05-17T14:24:30.979Z,2.13
2023-05-17T14:26:59.649Z,1.70
2023-05-17T14:29:30.387Z,2.38
2023-05-17T14:31:58.732Z,2.03
2023-05-17T14:34:27.146Z,1.75
2023-05-17T14:36:55.717Z,1.65
2023-05-17T14:39:24.255Z,1.88
2023-05-17T14:41:52.698Z,1.50
2023-05-17T14:44:21.206Z,1.92
2023-05-17T14:46:50.928Z,1.95
2023-05-17T14:49:19.406Z,2.03
2023-05-17T14:51:47.802Z,1.95
2023-05-17T14:54:16.839Z,1.80
2023-05-17T14:56:45.503Z,1.83
2023-05-17T14:59:13.921Z,1.77
2023-05-17T15:01:42.350Z,1.80
2023-05-17T15:04:12.105Z,1.73
2023-05-17T15:06:40.803Z,2.05
2023-05-17T15:09:12.825Z,2.03
2023-05-17T15:11:42.046Z,1.70
2023-05-17T15:14:10.377Z,1.65
2023-05-17T15:16:39.007Z,1.80
2023-05-17T15:19:07.754Z,1.83
2023-05-17T15:21:37.535Z,1.50
2023-05-17T15:24:06.927Z,1.38
2023-05-17T15:26:35.596Z,1.30
2023-05-17T15:29:03.974Z,1.83
2023-05-17T15:31:32.758Z,1.38
2023-05-17T15:34:01.582Z,1.48
2023-05-17T15:36:30.257Z,1.30
2023-05-17T15:39:00.036Z,1.30
2023-05-17T15:41:30.234Z,1.98
2023-05-17T15:43:59.030Z,1.52
2023-05-17T15:46:27.439Z,1.50
2023-05-17T15:48:57.001Z,1.63
2023-05-17T15:51:25.430Z,1.95
2023-05-17T15:53:53.798Z,1.13
2023-05-17T15:56:23.587Z,1.48
2023-05-17T15:58:52.654Z,1.45
2023-05-17T16:01:21.217Z,1.40
2023-05-17T16:03:49.678Z,1.50
2023-05-17T16:06:18.166Z,1.35
2023-05-17T16:08:46.686Z,1.70
2023-05-17T16:11:15.065Z,1.50
2023-05-17T16:13:44.938Z,1.60
2023-05-17T16:16:14.610Z,1.83
2023-05-17T16:18:43.218Z,1.30
2023-05-17T16:21:12.123Z,2.00
2023-05-17T16:23:40.501Z,1.48
2023-05-17T16:26:08.920Z,1.45
2023-05-17T16:28:37.463Z,1.60
2023-05-17T16:31:07.744Z,1.58
2023-05-17T16:33:36.400Z,1.50
2023-05-17T16:36:05.659Z,1.40
2023-05-17T16:38:34.212Z,1.63
2023-05-17T16:41:03.605Z,1.40
2023-05-17T16:43:32.188Z,1.70
2023-05-17T16:46:00.719Z,2.03
2023-05-17T16:48:30.720Z,1.75
2023-05-17T16:50:59.721Z,1.40
2023-05-17T16:53:29.116Z,1.80
2023-05-17T16:55:57.572Z,1.88
2023-05-17T16:58:26.749Z,1.70
2023-05-17T17:00:55.160Z,2.15
2023-05-17T17:03:23.574Z,1.77
2023-05-17T17:05:53.493Z,1.40
2023-05-17T17:08:21.872Z,1.50
2023-05-17T17:10:50.257Z,1.50
2023-05-17T17:13:18.652Z,1.80
2023-05-17T17:15:47.414Z,1.60
2023-05-17T17:18:17.593Z,1.70
2023-05-17T17:21:09.377Z,1.35
2023-05-17T17:23:40.827Z,1.63
2023-05-17T17:26:11.298Z,1.63
2023-05-17T17:28:39.819Z,1.60
2023-05-17T17:31:08.378Z,2.00
2023-05-17T17:33:37.688Z,1.85
2023-05-17T17:36:09.307Z,1.63
2023-05-17T17:38:37.810Z,1.70
2023-05-17T17:41:06.347Z,2.40
2023-05-17T17:43:34.807Z,1.90
2023-05-17T17:46:03.386Z,2.15
2023-05-17T17:48:32.882Z,1.92
2023-05-17T17:51:01.341Z,2.28
2023-05-17T17:53:31.125Z,2.25
2023-05-17T17:55:59.469Z,2.28
2023-05-17T17:58:27.869Z,2.42
2023-05-17T18:00:56.243Z,2.08
2023-05-17T18:03:24.722Z,1.98
2023-05-17T18:05:53.144Z,2.10
2023-05-17T18:08:21.540Z,2.00
2023-05-17T18:10:51.331Z,1.52
2023-05-17T18:13:19.668Z,1.80
2023-05-17T18:15:48.040Z,2.17
2023-05-17T18:18:16.583Z,2.10
2023-05-17T18:20:45.023Z,2.08
2023-05-17T18:23:13.437Z,3.17
2023-05-17T18:25:41.890Z,3.83
2023-05-17T18:28:11.649Z,2.95
2023-05-17T18:30:40.622Z,2.88
2023-05-17T18:33:09.151Z,3.05
2023-05-17T18:35:37.780Z,2.65
2023-05-17T18:38:06.181Z,2.35
2023-05-17T18:40:34.820Z,2.50
2023-05-17T18:43:03.200Z,2.13
2023-05-17T18:45:36.302Z,3.92
2023-05-17T18:48:05.007Z,6.15
2023-05-17T18:50:33.589Z,7.75
2023-05-17T18:53:02.020Z,7.35
2023-05-17T18:55:30.500Z,4.60
2023-05-17T18:57:58.948Z,3.03
2023-05-17T19:00:27.442Z,2.70
2023-05-17T19:02:57.803Z,2.63
2023-05-17T19:05:26.343Z,2.85
2023-05-17T19:07:54.786Z,2.77
2023-05-17T19:10:23.188Z,3.50
2023-05-17T19:12:51.632Z,2.63
2023-05-17T19:15:21.091Z,2.42
2023-05-17T19:17:49.569Z,2.17
2023-05-17T19:20:19.849Z,2.03
2023-05-17T19:22:48.238Z,2.28
2023-05-17T19:25:17.472Z,2.00
2023-05-17T19:27:47.747Z,2.10
2023-05-17T19:30:16.355Z,2.33
2023-05-17T19:32:44.800Z,1.83
2023-05-17T19:35:13.233Z,2.13
2023-05-17T19:37:43.109Z,1.70
2023-05-17T19:40:14.769Z,1.90
2023-05-17T19:42:43.173Z,1.87
2023-05-17T19:45:12.614Z,2.00
2023-05-17T19:47:41.295Z,2.00
2023-05-17T19:50:11.404Z,3.03
2023-05-17T19:52:39.858Z,2.90
2023-05-17T19:55:09.957Z,2.80
2023-05-17T19:57:38.418Z,2.73
2023-05-17T20:00:08.884Z,3.00
2023-05-17T20:02:37.437Z,3.20
2023-05-17T20:05:06.679Z,3.50
2023-05-17T20:07:35.107Z,2.67
2023-05-17T20:10:03.525Z,2.57
2023-05-17T20:12:33.347Z,2.60
2023-05-17T20:15:01.760Z,2.60
2023-05-17T20:17:30.286Z,3.00
2023-05-17T20:19:58.720Z,2.77
2023-05-17T20:22:27.228Z,3.40
2023-05-17T20:24:57.796Z,3.27
2023-05-17T20:27:26.877Z,2.87
2023-05-17T20:29:56.632Z,2.80
2023-05-17T20:32:25.088Z,2.97
2023-05-17T20:34:53.512Z,2.93
2023-05-17T20:37:21.897Z,2.50
2023-05-17T20:39:50.341Z,2.90
2023-05-17T20:42:20.391Z,2.50
2023-05-17T20:44:49.257Z,3.33
2023-05-17T20:47:19.012Z,3.43
2023-05-17T20:49:50.200Z,3.27
2023-05-17T20:52:27.737Z,3.43
2023-05-17T20:55:07.443Z,3.57
2023-05-17T20:57:35.868Z,3.20
2023-05-17T21:00:06.478Z,3.23
2023-05-17T21:02:36.387Z,3.03
2023-05-17T21:05:05.122Z,3.20
2023-05-17T21:07:34.948Z,3.00
2023-05-17T21:10:03.466Z,3.23
2023-05-17T21:12:31.843Z,3.20
2023-05-17T21:15:15.167Z,3.83
2023-05-17T21:17:46.988Z,4.37
2023-05-17T21:20:15.667Z,4.03
2023-05-17T21:22:44.407Z,4.43
2023-05-17T21:25:12.815Z,4.40
2023-05-17T21:27:41.212Z,3.97
2023-05-17T21:30:10.870Z,3.60
2023-05-17T21:32:39.310Z,3.67
2023-05-17T21:35:09.865Z,3.53
2023-05-17T21:37:40.132Z,3.13
2023-05-17T21:40:10.700Z,3.43
2023-05-17T21:42:39.203Z,2.90
2023-05-17T21:45:09.295Z,3.97
2023-05-17T21:47:37.693Z,2.90
2023-05-17T21:50:08.595Z,2.87
2023-05-17T21:52:37.534Z,3.17
2023-05-17T21:55:07.917Z,3.23
2023-05-17T21:57:37.055Z,3.50
2023-05-17T22:00:07.882Z,3.10
2023-05-17T22:02:37.400Z,3.03
2023-05-17T22:05:07.148Z,2.90
2023-05-17T22:07:37.180Z,3.00
2023-05-17T22:10:09.369Z,2.40
2023-05-17T22:12:38.557Z,2.80
2023-05-17T22:15:09.722Z,3.00
2023-05-17T22:17:47.706Z,2.80
2023-05-17T22:20:22.963Z,3.13
2023-05-17T22:22:52.723Z,3.00
2023-05-17T22:25:21.187Z,3.13
2023-05-17T22:27:49.578Z,3.00
2023-05-17T22:30:18.176Z,3.00
2023-05-17T22:32:46.789Z,3.00
2023-05-17T22:35:15.230Z,3.53
2023-05-17T22:37:45.414Z,3.07
2023-05-17T22:40:15.617Z,3.17
2023-05-17T22:42:44.865Z,3.80
2023-05-17T22:45:14.489Z,3.33
2023-05-17T22:47:43.663Z,3.00
2023-05-17T22:50:14.487Z,3.17
2023-05-17T22:52:42.910Z,3.30
2023-05-17T22:55:11.839Z,3.30
2023-05-17T22:57:42.363Z,3.37
2023-05-17T23:00:12.062Z,3.27
2023-05-17T23:02:40.536Z,3.10
2023-05-17T23:05:11.210Z,3.30
2023-05-17T23:07:41.432Z,3.10
2023-05-17T23:10:12.649Z,2.77
2023-05-17T23:12:42.535Z,2.60
2023-05-17T23:15:12.321Z,2.57
2023-05-17T23:17:41.276Z,3.13
2023-05-17T23:20:12.108Z,2.50
2023-05-17T23:22:41.128Z,2.63
2023-05-17T23:25:10.655Z,2.70
2023-05-17T23:27:39.013Z,2.50
2023-05-17T23:30:10.283Z,2.40
2023-05-17T23:32:38.653Z,2.80
2023-05-17T23:35:09.599Z,2.80
2023-05-17T23:37:38.388Z,2.37
2023-05-17T23:40:09.411Z,2.70
2023-05-17T23:42:37.901Z,2.60
2023-05-17T23:45:09.344Z,1.83
2023-05-17T23:47:40.937Z,2.10
2023-05-17T23:50:10.888Z,2.17
2023-05-17T23:52:39.917Z,2.23
2023-05-17T23:55:09.325Z,2.20
2023-05-17T23:57:38.815Z,2.40
